Dallas, TX

4:47 PM CDT on March 26, 2017 (GMT -0500)
Uptown | | Change Station
Active Advisory: Tornado Watch

Elev 452 ft 32.79 °N, 96.81 °W | Updated 14 minutes ago

Mostly Cloudy
Mostly Cloudy
82.0 °F
Feels Like 83 °F
N
2.5
Wind Variable Wind from SSE

Today
High -- | Low -- °F
--% Chance of Precip.
Yesterday
High -- | Low -- °F
Precip. -- in
Pressure 29.74 in
Visibility 10.0 miles
Clouds Mostly Cloudy 5000 ft
Mostly Cloudy 25000 ft
Heat Index 83 °F
Dew Point 60 °F
Humidity 50%
Rainfall Not available.
Snow Depth Not available.
7:22 AM 7:43 PM
Waning Crescent, 2% visible
METAR KDAL 262053Z 18016G25KT 10SM BKN050 BKN250 28/16 A2976 RMK AO2 PK WND 16028/2013 SLP071 BKN050 V SCT T02830156 56032
Pressure 29.74 in
Visibility 10.0 miles
Clouds Mostly Cloudy 5000 ft
Mostly Cloudy 25000 ft
Heat Index 83 °F
Dew Point 60 °F
Humidity 50%
Rainfall Not available.
Snow Depth Not available.
7:22 AM 7:43 PM
Waning Crescent, 2% visible
METAR KDAL 262053Z 18016G25KT 10SM BKN050 BKN250 28/16 A2976 RMK AO2 PK WND 16028/2013 SLP071 BKN050 V SCT T02830156 56032

Get Your Daily Forecast Email!

Thanks for signing up!

Be on the lookout for a verification email in your inbox.

You'll start receiving severe weather alerts in your inbox..

×

10-Day Weather Forecast

Almanac

Astronomy

Mar. 26, 2017 Rise Set
Actual Time
Civil Twilight
Nautical Twilight
Astronomical Twilight
Moon
Length of Visible Light
Length of Day
Tomorrow will be .
, % of the Moon is Illuminated

Today's Extremes

State Highs State Lows

Community

WunderPhotos

Upload Photos

1,962,540 photos uploaded!

WunderBlog® & News

Nearby

Air Quality

  Air Quality AQ Index Pollutant
Not available.

Snow Depth

Station Depth Elevation

Earthquake Activity

City Distance Mag. Time & Date
Minimum magnitude displayed is 2.5.

Earthquake Activity

City Distance Mag. Time & Date
Minimum magnitude displayed is 2.5.

Coastal Water Temperatures

Place Temperature

Stations

Nearby Weather Stations

Station Location Temp. Windchill Dew Point Humidity Wind Precip. Elev Updated Type
                   

Watches & Warnings

Tornado Watch
Issued: 4:43 PM CDT Mar. 26, 2017 – National Weather Service

Tornado Watch 86 remains in effect until 1100 PM CDT for the
following locations

TX
. Texas counties included are

Clay Collin Cooke
Dallas Delta Denton
Fannin Grayson Hunt
Jack Lamar Montague
Parker Rockwall Tarrant
wise